createdAt,value
2017-08-17T00:02:14.452Z,81.70
2017-08-17T00:04:41.946Z,81.80
2017-08-17T00:07:09.437Z,81.80
2017-08-17T00:15:22.621Z,82.10
2017-08-17T00:17:50.095Z,82.10
2017-08-17T00:20:17.586Z,82.00
2017-08-17T00:22:45.078Z,82.30
2017-08-17T00:25:12.563Z,82.40
2017-08-17T00:27:40.043Z,82.20
2017-08-17T00:30:08.286Z,82.80
2017-08-17T00:32:35.772Z,82.00
2017-08-17T00:35:04.052Z,82.30
2017-08-17T00:37:32.298Z,82.30
2017-08-17T00:39:59.775Z,82.30
2017-08-17T00:42:27.256Z,82.30
2017-08-17T00:44:54.748Z,82.40
2017-08-17T00:47:22.226Z,82.40
2017-08-17T00:49:49.726Z,82.40
2017-08-17T00:52:17.226Z,82.50
2017-08-17T00:54:44.754Z,82.70
2017-08-17T00:57:12.254Z,82.30
2017-08-17T00:59:39.744Z,82.50
2017-08-17T01:02:08.005Z,82.50
2017-08-17T01:04:35.505Z,82.40
2017-08-17T01:07:02.992Z,82.70
2017-08-17T01:09:30.512Z,82.60
2017-08-17T01:11:58.025Z,82.70
2017-08-17T01:14:25.522Z,82.90
2017-08-17T01:16:53.022Z,82.50
2017-08-17T01:19:20.534Z,82.40
2017-08-17T01:21:48.808Z,82.10
2017-08-17T01:24:16.356Z,82.10
2017-08-17T01:26:44.620Z,81.90
2017-08-17T01:29:12.104Z,82.00
2017-08-17T01:31:39.615Z,81.90
2017-08-17T01:34:07.118Z,81.80
2017-08-17T01:36:35.394Z,81.40
2017-08-17T01:39:02.891Z,81.40
2017-08-17T01:41:30.428Z,81.50
2017-08-17T01:43:57.919Z,81.70
2017-08-17T01:46:26.135Z,81.70
2017-08-17T01:48:54.398Z,81.60
2017-08-17T01:51:21.892Z,81.60
2017-08-17T01:53:49.394Z,81.40
2017-08-17T01:56:16.880Z,81.30
2017-08-17T01:58:44.367Z,81.40
2017-08-17T02:01:11.863Z,81.40
2017-08-17T02:03:39.375Z,81.40
2017-08-17T02:06:06.852Z,81.20
2017-08-17T02:08:34.360Z,81.30
2017-08-17T02:11:01.856Z,81.40
2017-08-17T02:13:29.335Z,81.10
2017-08-17T02:15:56.827Z,81.10
2017-08-17T02:18:24.308Z,81.20
2017-08-17T02:20:52.568Z,81.50
2017-08-17T02:23:20.061Z,81.50
2017-08-17T02:25:47.551Z,81.40
2017-08-17T02:28:15.049Z,81.50
2017-08-17T02:30:42.533Z,81.70
2017-08-17T02:33:10.026Z,81.70
2017-08-17T02:35:37.547Z,81.80
2017-08-17T02:38:05.043Z,81.90
2017-08-17T02:40:32.560Z,82.10
2017-08-17T02:43:00.746Z,82.30
2017-08-17T02:45:28.239Z,82.40
2017-08-17T02:47:55.720Z,82.30
2017-08-17T02:50:23.990Z,82.90
2017-08-17T02:52:51.485Z,82.80
2017-08-17T02:55:18.980Z,83.00
2017-08-17T02:57:46.464Z,83.20
2017-08-17T03:00:13.960Z,83.50
2017-08-17T03:02:41.452Z,83.90
2017-08-17T03:05:09.178Z,84.00
2017-08-17T03:07:36.667Z,84.10
2017-08-17T03:10:04.161Z,84.20
2017-08-17T03:12:32.435Z,83.90
2017-08-17T03:15:01.274Z,83.50
2017-08-17T03:17:28.748Z,83.40
2017-08-17T03:19:56.239Z,83.40
2017-08-17T03:22:23.729Z,83.30
2017-08-17T03:24:51.229Z,83.20
2017-08-17T03:27:18.733Z,83.10
2017-08-17T03:29:46.996Z,82.80
2017-08-17T03:32:14.514Z,82.80
2017-08-17T03:34:42.007Z,82.70
2017-08-17T03:37:09.518Z,82.50
2017-08-17T03:39:37.007Z,82.30
2017-08-17T03:42:04.504Z,82.20
2017-08-17T03:44:31.987Z,82.30
2017-08-17T03:46:59.475Z,82.30
2017-08-17T03:49:26.971Z,82.30
2017-08-17T03:51:54.459Z,82.40
2017-08-17T03:54:21.963Z,82.70
2017-08-17T03:56:49.478Z,82.50
2017-08-17T03:59:16.989Z,82.50
2017-08-17T04:01:45.270Z,83.00
2017-08-17T04:04:12.773Z,82.80
2017-08-17T04:06:40.259Z,82.90
2017-08-17T04:09:07.753Z,83.00
2017-08-17T04:11:35.247Z,82.90
2017-08-17T04:14:02.736Z,83.00
2017-08-17T04:16:30.223Z,83.20
2017-08-17T04:18:57.713Z,83.20
2017-08-17T04:21:25.204Z,83.10
2017-08-17T04:23:52.716Z,83.10
2017-08-17T04:26:20.217Z,83.30
2017-08-17T04:28:47.709Z,83.60
2017-08-17T04:31:15.229Z,83.90
2017-08-17T04:33:42.728Z,84.00
2017-08-17T04:36:10.229Z,84.00
2017-08-17T04:38:37.724Z,84.00
2017-08-17T04:41:05.220Z,83.90
2017-08-17T04:43:32.706Z,84.30
2017-08-17T04:46:00.195Z,84.20
2017-08-17T04:48:27.676Z,84.00
2017-08-17T04:50:55.184Z,83.70
2017-08-17T04:53:22.656Z,83.40
2017-08-17T04:55:50.163Z,83.10
2017-08-17T04:58:35.376Z,82.90
2017-08-17T05:01:02.886Z,82.80
2017-08-17T05:03:30.368Z,82.80
2017-08-17T05:05:57.851Z,83.00
2017-08-17T05:08:25.327Z,82.80
2017-08-17T05:10:52.819Z,82.70
2017-08-17T05:13:20.316Z,82.40
2017-08-17T05:15:47.801Z,83.10
2017-08-17T05:18:15.281Z,83.00
2017-08-17T05:20:42.805Z,82.70
2017-08-17T05:23:10.308Z,82.40
2017-08-17T05:25:37.807Z,82.50
2017-08-17T05:28:05.303Z,82.40
2017-08-17T05:30:33.564Z,82.00
2017-08-17T05:33:01.087Z,82.10
2017-08-17T05:35:28.574Z,81.90
2017-08-17T05:37:56.060Z,81.40
2017-08-17T05:40:23.542Z,81.30
2017-08-17T05:42:51.051Z,81.20
2017-08-17T05:45:19.302Z,80.80
2017-08-17T05:47:46.801Z,80.70
2017-08-17T05:50:15.863Z,80.60
2017-08-17T05:52:43.361Z,80.50
2017-08-17T05:55:11.615Z,80.30
2017-08-17T05:57:39.199Z,80.30
2017-08-17T06:00:06.691Z,80.40
2017-08-17T06:02:34.201Z,80.30
2017-08-17T06:05:02.449Z,79.80
2017-08-17T06:07:29.936Z,79.70
2017-08-17T06:09:58.194Z,79.50
2017-08-17T06:12:26.457Z,79.40
2017-08-17T06:14:53.936Z,79.10
2017-08-17T06:17:21.423Z,78.80
2017-08-17T06:19:48.917Z,78.60
2017-08-17T06:22:16.409Z,78.50
2017-08-17T06:24:43.910Z,78.50
2017-08-17T06:27:11.399Z,78.20
2017-08-17T06:29:38.897Z,78.30
2017-08-17T06:32:06.387Z,78.20
2017-08-17T06:34:33.887Z,78.20
2017-08-17T06:37:02.145Z,78.10
2017-08-17T06:39:29.648Z,78.10
2017-08-17T06:41:57.139Z,78.20
2017-08-17T06:44:24.668Z,78.20
2017-08-17T06:46:52.164Z,78.00
2017-08-17T06:49:19.656Z,78.00
2017-08-17T06:51:47.918Z,78.20
2017-08-17T06:54:15.413Z,78.20
2017-08-17T06:56:42.899Z,78.30
2017-08-17T06:59:10.400Z,77.80
2017-08-17T07:01:37.887Z,78.00
2017-08-17T07:04:05.361Z,78.60
2017-08-17T07:06:32.859Z,78.20
2017-08-17T07:09:00.364Z,78.30
2017-08-17T07:11:27.852Z,78.50
2017-08-17T07:13:55.366Z,78.70
2017-08-17T07:16:22.863Z,78.70
2017-08-17T07:18:50.364Z,78.80
2017-08-17T07:21:17.860Z,79.00
2017-08-17T07:23:45.354Z,79.00
2017-08-17T07:26:12.844Z,78.70
2017-08-17T07:28:41.095Z,79.00
2017-08-17T07:31:08.589Z,78.50
2017-08-17T07:33:36.091Z,78.00
2017-08-17T07:36:03.588Z,77.50
2017-08-17T07:38:31.842Z,76.80
2017-08-17T07:40:59.334Z,76.80
2017-08-17T07:43:26.850Z,76.90
2017-08-17T07:45:54.337Z,77.00
2017-08-17T07:48:22.607Z,76.50
2017-08-17T07:50:50.092Z,76.50
2017-08-17T07:53:17.581Z,76.50
2017-08-17T07:55:45.076Z,76.50
2017-08-17T07:58:12.564Z,75.80
2017-08-17T08:00:40.061Z,75.10
2017-08-17T08:03:07.545Z,73.90
2017-08-17T08:05:35.036Z,74.00
2017-08-17T08:08:02.529Z,73.40
2017-08-17T08:10:30.015Z,72.70
2017-08-17T08:12:57.503Z,72.90
2017-08-17T08:15:24.999Z,73.10
2017-08-17T08:17:52.488Z,72.10
2017-08-17T08:20:19.993Z,73.10
2017-08-17T08:22:47.480Z,72.60
2017-08-17T08:25:14.990Z,71.20
2017-08-17T08:27:42.481Z,71.70
2017-08-17T08:30:09.970Z,71.50
2017-08-17T08:32:37.465Z,71.60
2017-08-17T08:35:04.960Z,72.20
2017-08-17T08:37:32.446Z,72.50
2017-08-17T08:39:59.926Z,70.90
2017-08-17T08:42:28.183Z,70.00
2017-08-17T08:44:55.674Z,70.10
2017-08-17T08:47:23.159Z,70.60
2017-08-17T08:49:50.685Z,71.10
2017-08-17T08:52:18.182Z,70.40
2017-08-17T08:54:45.668Z,70.00
2017-08-17T08:57:13.167Z,69.90
2017-08-17T08:59:40.658Z,70.10
2017-08-17T09:02:08.149Z,70.20
2017-08-17T09:04:35.659Z,70.10
2017-08-17T09:07:03.152Z,69.60
2017-08-17T09:09:30.647Z,69.00
2017-08-17T09:11:58.172Z,69.20
2017-08-17T09:14:25.657Z,69.00
2017-08-17T09:16:54.024Z,68.90
2017-08-17T09:19:22.277Z,67.90
2017-08-17T09:21:49.760Z,68.20
2017-08-17T09:24:17.247Z,67.70
2017-08-17T09:26:44.736Z,67.70
2017-08-17T09:29:12.227Z,67.50
2017-08-17T09:31:39.710Z,68.10
2017-08-17T09:34:07.196Z,67.50
2017-08-17T09:36:34.671Z,66.80
2017-08-17T09:39:02.151Z,66.50
2017-08-17T09:41:29.639Z,66.90
2017-08-17T09:43:57.129Z,66.60
2017-08-17T09:46:24.612Z,67.70
2017-08-17T09:48:52.140Z,67.10
2017-08-17T09:51:19.629Z,67.00
2017-08-17T09:53:47.116Z,66.80
2017-08-17T09:56:14.592Z,66.80
2017-08-17T09:58:42.080Z,66.60
2017-08-17T10:01:09.607Z,65.10
2017-08-17T10:03:37.104Z,64.10
2017-08-17T10:06:04.588Z,64.50
2017-08-17T10:08:32.060Z,65.00
2017-08-17T10:10:59.545Z,65.00
2017-08-17T10:13:27.030Z,65.60
2017-08-17T10:15:54.552Z,65.00
2017-08-17T10:18:22.043Z,65.60
2017-08-17T10:20:49.563Z,65.00
2017-08-17T10:23:17.043Z,64.20
2017-08-17T10:25:44.528Z,64.10
2017-08-17T10:28:11.999Z,64.50
2017-08-17T10:30:39.496Z,64.70
2017-08-17T10:33:06.985Z,64.70
2017-08-17T10:35:34.469Z,64.20
2017-08-17T10:38:01.961Z,65.00
2017-08-17T10:40:29.443Z,63.70
2017-08-17T10:42:56.960Z,63.70
2017-08-17T10:45:25.221Z,63.20
2017-08-17T10:47:52.748Z,63.20
2017-08-17T10:50:20.230Z,63.50
2017-08-17T10:52:47.728Z,64.30
2017-08-17T10:55:15.204Z,63.20
2017-08-17T10:57:42.707Z,63.90
2017-08-17T11:00:10.198Z,64.00
2017-08-17T11:02:37.675Z,62.40
2017-08-17T11:05:05.148Z,62.80
2017-08-17T11:07:32.635Z,64.00
2017-08-17T11:10:00.111Z,62.50
2017-08-17T11:12:28.356Z,62.20
2017-08-17T11:14:55.860Z,62.20
2017-08-17T11:17:23.399Z,62.40
2017-08-17T11:19:50.875Z,62.20
2017-08-17T11:22:18.360Z,62.40
2017-08-17T11:24:45.900Z,62.30
2017-08-17T11:27:13.380Z,62.80
2017-08-17T11:29:40.893Z,63.40
2017-08-17T11:32:09.146Z,62.70
2017-08-17T11:34:36.629Z,62.50
2017-08-17T11:37:04.103Z,64.00
2017-08-17T11:39:31.599Z,62.70
2017-08-17T11:41:59.076Z,61.70
2017-08-17T11:44:26.551Z,62.30
2017-08-17T11:46:54.023Z,62.70
2017-08-17T11:49:21.508Z,63.20
2017-08-17T11:51:48.983Z,62.80
2017-08-17T11:54:16.459Z,63.60
2017-08-17T11:56:43.933Z,64.10
2017-08-17T11:59:11.415Z,64.40
2017-08-17T12:01:38.905Z,64.00
2017-08-17T12:04:06.384Z,62.70
2017-08-17T12:06:33.872Z,61.80
2017-08-17T12:09:02.120Z,62.20
2017-08-17T12:11:29.619Z,62.10
2017-08-17T12:13:57.099Z,60.80
2017-08-17T12:16:24.573Z,58.70
2017-08-17T12:18:52.070Z,57.10
2017-08-17T12:21:20.328Z,58.80
2017-08-17T12:23:47.817Z,58.10
2017-08-17T12:26:16.096Z,58.40
2017-08-17T12:28:44.335Z,57.70
2017-08-17T12:31:11.822Z,57.60
2017-08-17T12:33:40.059Z,57.20
2017-08-17T12:36:07.532Z,57.20
2017-08-17T12:38:35.016Z,56.90
2017-08-17T12:41:02.488Z,55.90
2017-08-17T12:43:29.986Z,56.30
2017-08-17T12:45:57.455Z,56.70
2017-08-17T12:48:24.931Z,56.00
2017-08-17T12:50:52.409Z,56.90
2017-08-17T12:53:19.918Z,57.60
2017-08-17T12:55:47.392Z,55.50
2017-08-17T12:58:14.879Z,55.40
2017-08-17T13:00:42.356Z,56.10
2017-08-17T13:03:09.834Z,56.20
2017-08-17T13:05:37.311Z,56.40
2017-08-17T13:08:04.787Z,56.30
2017-08-17T13:10:32.260Z,55.60
2017-08-17T13:13:00.498Z,56.00
2017-08-17T13:15:27.972Z,56.00
2017-08-17T13:17:55.458Z,56.60
2017-08-17T13:20:22.931Z,56.50
2017-08-17T13:22:50.417Z,57.10
2017-08-17T13:25:17.892Z,57.10
2017-08-17T13:27:45.364Z,58.30
2017-08-17T13:30:13.623Z,57.90
2017-08-17T13:32:41.102Z,57.60
2017-08-17T13:35:08.600Z,57.90
2017-08-17T13:37:36.076Z,58.40
2017-08-17T13:40:03.543Z,57.90
2017-08-17T13:42:31.024Z,58.50
2017-08-17T13:44:58.506Z,57.90
2017-08-17T13:47:25.983Z,58.30
2017-08-17T13:49:53.466Z,58.60
2017-08-17T13:52:20.953Z,59.20
2017-08-17T13:54:48.460Z,59.40
2017-08-17T13:57:15.939Z,59.60
2017-08-17T13:59:43.433Z,60.00
2017-08-17T14:02:11.680Z,58.20
2017-08-17T14:04:39.161Z,58.20
2017-08-17T14:07:06.639Z,58.80
2017-08-17T14:09:34.113Z,59.70
2017-08-17T14:12:01.616Z,60.80
2017-08-17T14:14:29.102Z,61.80
2017-08-17T14:16:57.361Z,62.70
2017-08-17T14:19:24.842Z,62.70
2017-08-17T14:21:52.330Z,63.30
2017-08-17T14:24:19.815Z,64.50
2017-08-17T14:26:47.315Z,64.20
2017-08-17T14:29:14.807Z,66.10
2017-08-17T14:31:42.295Z,65.70
2017-08-17T14:34:09.779Z,67.70
2017-08-17T14:36:37.251Z,68.40
2017-08-17T14:39:04.724Z,69.40
2017-08-17T14:41:32.203Z,69.60
2017-08-17T14:43:59.688Z,69.80
2017-08-17T14:46:27.159Z,70.20
2017-08-17T14:48:55.398Z,70.80
2017-08-17T14:51:22.871Z,70.80
2017-08-17T14:53:50.373Z,71.50
2017-08-17T14:56:17.852Z,71.70
2017-08-17T14:58:45.350Z,72.00
2017-08-17T15:01:12.829Z,72.10
2017-08-17T15:03:40.308Z,72.10
2017-08-17T15:06:07.792Z,72.30
2017-08-17T15:08:35.264Z,72.50
2017-08-17T15:11:02.754Z,72.70
2017-08-17T15:13:31.024Z,73.20
2017-08-17T15:15:58.515Z,73.10
2017-08-17T15:18:26.015Z,73.60
2017-08-17T15:20:53.487Z,73.30
2017-08-17T15:23:20.967Z,73.70
2017-08-17T15:25:49.207Z,73.90
2017-08-17T15:28:16.694Z,73.90
2017-08-17T15:30:44.170Z,73.70
2017-08-17T15:33:11.671Z,74.00
2017-08-17T15:35:39.205Z,74.30
2017-08-17T15:38:06.684Z,74.70
2017-08-17T15:40:34.168Z,75.10
2017-08-17T15:43:01.647Z,75.20
2017-08-17T15:45:29.158Z,75.10
2017-08-17T15:47:56.640Z,75.10
2017-08-17T15:50:24.216Z,75.70
2017-08-17T15:52:52.467Z,76.70
2017-08-17T15:55:19.964Z,76.70
2017-08-17T15:57:47.451Z,75.60
2017-08-17T16:00:14.962Z,77.40
2017-08-17T16:02:43.258Z,76.60
2017-08-17T16:05:10.775Z,76.60
2017-08-17T16:07:38.296Z,77.00
2017-08-17T16:10:05.795Z,77.70
2017-08-17T16:12:33.283Z,78.20
2017-08-17T16:15:00.769Z,78.40
2017-08-17T16:17:28.254Z,79.10
2017-08-17T16:19:55.769Z,79.70
2017-08-17T16:22:23.257Z,79.00
2017-08-17T16:24:50.802Z,78.40
2017-08-17T16:27:18.308Z,77.70
2017-08-17T16:29:45.796Z,78.40
2017-08-17T16:32:13.281Z,79.30
2017-08-17T16:34:40.792Z,79.00
2017-08-17T16:37:08.288Z,79.80
2017-08-17T16:39:35.779Z,80.10
2017-08-17T16:42:03.272Z,79.50
2017-08-17T16:44:30.780Z,79.40
2017-08-17T16:46:58.269Z,79.80
2017-08-17T16:49:25.771Z,79.90
2017-08-17T16:51:53.251Z,80.20
2017-08-17T16:54:20.740Z,80.20
2017-08-17T16:56:48.225Z,79.80
2017-08-17T16:59:15.727Z,80.30
2017-08-17T17:01:43.279Z,80.10
2017-08-17T17:04:10.765Z,80.30
2017-08-17T17:06:38.261Z,80.60
2017-08-17T17:09:05.784Z,80.30
2017-08-17T17:11:33.264Z,80.90
2017-08-17T17:14:01.516Z,79.50
2017-08-17T17:16:29.039Z,79.50
2017-08-17T17:18:56.538Z,80.40
2017-08-17T17:21:24.048Z,81.40
2017-08-17T17:23:51.540Z,81.30
2017-08-17T17:26:19.061Z,81.70
2017-08-17T17:28:46.557Z,82.30
2017-08-17T17:31:14.086Z,82.40
2017-08-17T17:33:41.575Z,82.20
2017-08-17T17:36:09.063Z,82.50
2017-08-17T17:38:36.575Z,82.90
2017-08-17T17:41:04.071Z,83.40
2017-08-17T17:43:31.638Z,83.60
2017-08-17T17:45:59.128Z,83.90
2017-08-17T17:48:26.620Z,83.60
2017-08-17T17:50:54.139Z,83.70
2017-08-17T17:53:21.657Z,83.80
2017-08-17T17:55:49.196Z,84.00
2017-08-17T17:58:16.772Z,84.20
2017-08-17T18:00:44.269Z,83.90
2017-08-17T18:03:12.726Z,84.30
2017-08-17T18:05:40.227Z,84.40
2017-08-17T18:08:07.726Z,84.50
2017-08-17T18:10:35.237Z,84.30
2017-08-17T18:13:02.726Z,84.20
2017-08-17T18:15:30.492Z,84.20
2017-08-17T18:17:58.045Z,84.30
2017-08-17T18:20:25.611Z,84.30
2017-08-17T18:23:00.310Z,84.10
2017-08-17T18:25:27.820Z,84.00
2017-08-17T18:27:55.311Z,84.20
2017-08-17T18:30:22.904Z,84.00
2017-08-17T18:32:50.420Z,84.00
2017-08-17T18:35:17.969Z,84.10
2017-08-17T18:37:45.471Z,84.00
2017-08-17T18:40:12.979Z,83.50
2017-08-17T18:42:41.207Z,83.60
2017-08-17T18:45:08.724Z,83.80
2017-08-17T18:47:36.269Z,84.10
2017-08-17T18:50:04.683Z,83.90
2017-08-17T18:52:32.266Z,83.40
2017-08-17T18:54:59.792Z,82.90
2017-08-17T18:57:27.600Z,83.30
2017-08-17T18:59:55.909Z,84.00
2017-08-17T19:02:23.442Z,84.00
2017-08-17T19:04:51.860Z,84.00
2017-08-17T19:07:19.439Z,84.00
2017-08-17T19:09:48.858Z,84.10
2017-08-17T19:12:16.366Z,83.80
2017-08-17T19:14:44.154Z,83.80
2017-08-17T19:17:11.746Z,83.50
2017-08-17T19:19:40.197Z,83.40
2017-08-17T19:22:07.811Z,83.40
2017-08-17T19:24:36.498Z,83.40
2017-08-17T19:27:04.389Z,83.90
2017-08-17T19:29:32.529Z,83.80
2017-08-17T19:32:08.472Z,84.20
2017-08-17T19:34:40.621Z,84.20
2017-08-17T19:37:18.670Z,84.20
2017-08-17T19:39:54.163Z,84.20
2017-08-17T19:42:22.860Z,84.20
2017-08-17T19:45:02.014Z,83.90
2017-08-17T19:47:33.167Z,83.80
2017-08-17T19:50:02.215Z,83.80
2017-08-17T19:52:34.259Z,84.10
2017-08-17T19:55:04.619Z,84.00
2017-08-17T19:57:37.529Z,84.20
2017-08-17T20:00:13.578Z,84.40
2017-08-17T20:02:46.560Z,84.20
2017-08-17T20:05:15.790Z,84.10
2017-08-17T20:07:46.512Z,84.40
2017-08-17T20:10:15.654Z,84.40
2017-08-17T20:12:44.666Z,84.40
2017-08-17T20:15:19.243Z,84.40
2017-08-17T20:17:51.658Z,84.00
2017-08-17T20:20:24.639Z,84.10
2017-08-17T20:22:59.140Z,83.70
2017-08-17T20:25:30.989Z,83.70
2017-08-17T20:28:00.225Z,83.90
2017-08-17T20:30:28.983Z,84.10
2017-08-17T20:32:57.735Z,84.10
2017-08-17T20:35:32.748Z,84.00
2017-08-17T20:38:00.267Z,84.10
2017-08-17T20:40:28.475Z,84.20
2017-08-17T20:42:55.995Z,84.20
2017-08-17T20:45:23.607Z,84.20
2017-08-17T20:47:51.131Z,84.30
2017-08-17T20:50:18.652Z,84.20
2017-08-17T20:52:46.642Z,84.10
2017-08-17T20:55:14.139Z,84.20
2017-08-17T20:57:42.196Z,84.10
2017-08-17T21:00:09.884Z,84.20
2017-08-17T21:02:37.419Z,84.30
2017-08-17T21:05:04.973Z,84.50
2017-08-17T21:07:32.529Z,84.60
2017-08-17T21:10:00.327Z,84.40
2017-08-17T21:12:27.885Z,84.00
2017-08-17T21:14:55.484Z,84.00
2017-08-17T21:17:23.179Z,84.10
2017-08-17T21:19:50.690Z,84.20
2017-08-17T21:22:19.154Z,84.20
2017-08-17T21:24:47.745Z,85.00
2017-08-17T21:27:15.240Z,84.30
2017-08-17T21:29:42.747Z,84.00
2017-08-17T21:32:10.252Z,84.10
2017-08-17T21:34:37.768Z,84.10
2017-08-17T21:37:05.799Z,84.10
2017-08-17T21:39:35.484Z,84.70
2017-08-17T21:42:02.990Z,84.40
2017-08-17T21:44:30.615Z,84.60
2017-08-17T21:46:59.098Z,84.50
2017-08-17T21:49:26.652Z,84.70
2017-08-17T21:51:54.198Z,85.00
2017-08-17T21:54:21.914Z,84.90
2017-08-17T21:56:49.462Z,84.70
2017-08-17T21:59:17.969Z,84.60
2017-08-17T22:01:46.263Z,84.70
2017-08-17T22:04:14.572Z,84.80
2017-08-17T22:06:42.103Z,84.80
2017-08-17T22:09:09.600Z,84.90
2017-08-17T22:11:38.179Z,84.80
2017-08-17T22:14:06.060Z,84.90
2017-08-17T22:16:33.590Z,84.90
2017-08-17T22:19:01.086Z,84.90
2017-08-17T22:21:28.599Z,85.00
2017-08-17T22:23:56.099Z,85.20
2017-08-17T22:26:23.583Z,85.00
2017-08-17T22:28:51.072Z,85.10
2017-08-17T22:31:18.584Z,85.10
2017-08-17T22:33:46.068Z,85.20
2017-08-17T22:36:13.564Z,85.30
2017-08-17T22:38:41.058Z,85.30
2017-08-17T22:41:08.563Z,85.30
2017-08-17T22:43:36.055Z,85.20
2017-08-17T22:46:03.544Z,85.10
2017-08-17T22:48:31.797Z,86.00
2017-08-17T22:50:59.299Z,85.20
2017-08-17T22:53:26.830Z,85.20
2017-08-17T22:55:54.319Z,85.20
2017-08-17T22:58:21.804Z,85.40
2017-08-17T23:00:49.287Z,85.10
2017-08-17T23:03:16.806Z,85.10
2017-08-17T23:05:44.317Z,85.30
2017-08-17T23:08:11.804Z,85.40
2017-08-17T23:10:39.301Z,85.30
2017-08-17T23:13:06.788Z,85.10
2017-08-17T23:15:34.280Z,85.00
2017-08-17T23:18:01.778Z,85.10
2017-08-17T23:20:29.264Z,85.00
2017-08-17T23:22:56.765Z,85.20
2017-08-17T23:25:24.248Z,85.10
2017-08-17T23:27:51.737Z,85.20
2017-08-17T23:30:19.234Z,85.50
2017-08-17T23:32:46.722Z,85.60
2017-08-17T23:35:14.226Z,85.70
2017-08-17T23:37:42.475Z,85.80
2017-08-17T23:40:09.967Z,85.70
2017-08-17T23:42:37.460Z,85.60
2017-08-17T23:45:05.000Z,85.80
2017-08-17T23:47:32.509Z,85.90
2017-08-17T23:49:59.996Z,85.90
2017-08-17T23:52:28.249Z,85.60
2017-08-17T23:54:56.520Z,85.70
2017-08-17T23:57:24.025Z,85.70
2017-08-17T23:59:51.532Z,85.50
